Aérodrome :
LOGIN :

S'inscrire | Disclaimer

   EN    FR    IT 

 










Légende :    VFR   VFR Marginal   IFR   IFR Intensif   IFR Très Intensif
Visi : 
Plafond : 
>= 8 km
>= 3000ft
5 à 8 km
1000 à 3000 ft
1500m à 5 km
500 à 1000 ft
800 à 1500m
200 à 500 ft
< 800m
< 200 ft
Symboles :   Orages  Brouillard  Fortes neiges  Fortes précipitations  Vent > 20 kt
SIGMETs :   Divers  Orages  Givrage  Turbulence  Onde Orograph.  Cendres Volcan.







- Altitude de l'aérodrome : 135 ft
- Code IATA : EDI
- Voir les cartes d'approche


EGPH - Edinburgh

DERNIER METAR :
  • 260350Z 32005KT 270V030 9999 NCD 03/M03 Q1021

METARs EXPIRÉS :
  • 260320Z 32005KT 260V010 9999 NCD 03/M03 Q1021
  • 260250Z 30004KT 270V340 9999 NCD 01/M04 Q1021
  • 260220Z AUTO 29004KT 260V340 9999 NCD 01/M04 Q1021
  • 260150Z VRB03KT CAVOK 01/M04 Q1021
  • 260120Z VRB03KT CAVOK 02/M04 Q1021

TAF TAF EGPH
Valide du 26 à 00h jusqu'au 27 à 00h UTC


252300Z 2600/2624 35009KT 9999 SCT035
PROB30
TEMPO 2620/2624 8000 -RA
ATIS : +44 131 339 2823
Pas de NOTAMs connus pour ce terrain.



MET'MAP, la Météo Aéronautique d'un coup d'oeil ! - Copyright ORBIFLY Décembre 2007 - Disclaimer

ORBIFLY MET'MAP TEAM :

Programmation & Développement : Alexandra Zaïnal
Conception & Développement : Baudouin d'Aumeries
Co-Programmation & Développement : Marc-Olivier Méhu
Soutien technique & logistique : Manuel Goepfert

Contact : metmap@orbifly.com




SOURCES & CREDITS :

   NOAA